Hauptseite
METAR-TAF:

METAR-TAF

Flughäfen :

Flughafen Karlsruhe/Baden-Baden

Baden-Baden, Deutschland

Breite: 48-46-43N, Länge: 008-04-47E, Höhe: 124 m

Beobachtung

Neuester Wetterbericht von vor 44 Minuten, um 15:20 UTC
Wind 12 kt aus Nordost, variierte zwischen Nord und Ost/Nordost
Temperatur 27°C
Luftfeuchtigkeit 42%
Luftdruck 1022 hPa
Sichtweite 10 km oder mehr
keine Wolken unter 1500 m und keine Kumulonimbus oder Gewitterwolken

METAR: EDSB 231520Z 04012KT 010V070 CAVOK 27/13 Q1022

Zeit: 18:04 (16:04 UTC)

Prognose

Neuester Wetterbericht von vor 5 Stunden und 4 Minuten, um 11:00 UTC
Gültige Prognose vom 23 um 12 UTC bis 24 um 12 UTC
Wind 10 kt aus Nord/Nordost
Sichtweite 10 km oder mehr
keine Wolken unter 1500 m und keine Kumulonimbus oder Gewitterwolken
Übergehend zu
vom 23 um 17 UTC bis 23 um 20 UTC
Wind 5 kt aus Nord/Nordost

TAF: EDSB 231100Z 2312/2412 03010KT CAVOK BECMG 2317/2320 03005KT

Wetterbeobachtungen und Prognosen von mehr als 4000 Flughäfen (METAR und TAF Bericht).

Die verfügbaren Stationen werden durch gelbe und rote Markierungen auf der Karte dargestellt.

Führen Sie die Maus auf sie, um den Namen der Station zu sehen.

Darauf klicken, um die Beobachtung von Wetterbeobachtungen und Prognosen zu sehen.

Um die Karte zu ändern : klicken Sie auf den grünen Tasten mit einem schwarzen Kreuz Zum Vergrößern, auf den grünen Button mit einem Gedankenstrich zu verkleinern, oder auf die grünen Pfeile für benachbarte Karten.


METAR-TAF: